Latest Weather Observations for Bridgetown

IDW60801

Issued at 8:32 pm WST Thursday 2 July 2015 (issued every 30 minutes, with the page automatically refreshed every 10 minutes)

About weather observations | Map of weather stations | Latest weather observations for WA | Other Formats
Station Details ID: 009617 Name: BRIDGETOWN Lat: -33.95 Lon: 116.13 Height: 178.66 m
Data from the previous 72 hours. | See also: Recent months at Bridgetown
Date/Time
WST
Temp
°C
App
Temp
°C
Dew
Point
Rel
Hum
%
Delta-T
°C
Wind Press
QNH
hPa
Press
MSL
hPa
Rain
since 9 am
mm
Dir
 
Spd
km/h
Gust
km/h
Spd
kts
Gust
kts
02/08:30pm 14.2 14.6 12.4 89 1.0 WSW 2 6 1 3 1021.5 1021.7 0.2
02/08:00pm 14.2 13.5 11.5 84 1.4 W 6 7 3 4 1021.2 1021.4 0.0
02/07:30pm 12.9 12.2 12.0 94 0.5 NNW 7 9 4 5 1020.9 1021.1 0.0
02/07:00pm 12.1 12.1 11.2 94 0.5 NW 2 4 1 2 1021.3 1021.5 0.0
02/06:30pm 12.8 13.1 11.0 89 0.9 CALM 0 0 0 0 1021.3 1021.5 0.0
02/06:00pm 13.7 13.3 9.6 76 2.1 NW 2 4 1 2 1020.9 1021.1 0.0
02/05:30pm 15.8 14.8 9.0 64 3.5 NW 4 6 2 3 1020.7 1020.9 0.0
02/05:00pm 17.2 15.9 9.1 59 4.2 NNW 6 11 3 6 1020.5 1020.8 0.0
02/04:30pm 17.5 15.9 8.9 57 4.5 NNW 7 11 4 6 1020.3 1020.5 0.0
02/04:00pm 18.9 17.7 9.7 55 4.9 NW 6 9 3 5 1020.3 1020.5 0.0
02/03:30pm 19.6 17.3 8.9 50 5.7 NW 11 20 6 11 1020.1 1020.3 0.0
02/03:00pm 20.0 18.9 9.9 52 5.4 NNW 6 11 3 6 1020.0 1020.2 0.0
02/02:30pm 19.0 17.1 9.2 53 5.2 NNW 9 17 5 9 1020.0 1020.2 0.0
02/02:00pm 19.2 15.8 9.1 52 5.3 NNW 17 28 9 15 1020.3 1020.5 0.0
02/01:30pm 19.3 18.2 10.8 58 4.7 NNW 7 13 4 7 1020.4 1020.6 0.0
02/01:00pm 18.0 16.0 10.1 60 4.2 N 11 17 6 9 1020.9 1021.1 0.0
02/12:30pm 18.0 16.5 10.6 62 4.0 NNW 9 17 5 9 1021.2 1021.4 0.0
02/12:00pm 17.9 16.6 11.2 65 3.7 N 9 17 5 9 1021.5 1021.7 0.0
02/11:30am 17.1 16.0 10.5 65 3.5 N 7 13 4 7 1021.9 1022.1 0.0
02/11:00am 15.6 14.5 10.6 72 2.7 N 7 15 4 8 1022.4 1022.6 0.0
02/10:30am 14.9 14.4 12.8 87 1.2 N 7 11 4 6 1022.7 1022.9 0.0
02/10:00am 14.0 13.6 12.9 93 0.6 N 7 11 4 6 1022.8 1023.0 0.0
02/09:30am 12.8 13.7 12.8 100 0.0 CALM 0 0 0 0 1023.1 1023.3 0.0
02/09:00am 11.5 12.0 11.5 100 0.0 CALM 0 0 0 0 1023.0 1023.2 1.6
02/08:30am 11.6 11.3 11.6 100 0.0 ESE 4 6 2 3 1022.4 1022.6 1.6
02/08:00am 10.6 10.8 10.6 100 0.0 CALM 0 0 0 0 1022.7 1022.9 1.6
02/07:30am 11.0 11.3 11.0 100 0.0 CALM 0 0 0 0 1022.7 1022.9 1.6
02/07:00am 11.7 12.2 11.7 100 0.0 CALM 0 0 0 0 1022.5 1022.7 1.6
02/06:30am 12.1 12.8 12.1 100 0.0 CALM 0 0 0 0 1022.3 1022.5 1.6
02/06:00am 12.7 13.5 12.7 100 0.0 CALM 0 0 0 0 1022.6 1022.8 1.6
02/05:30am 12.8 13.7 12.8 100 0.0 CALM 0 6 0 3 1022.8 1023.0 1.6
02/05:00am 12.9 12.7 12.9 100 0.0 N 6 11 3 6 1023.1 1023.3 1.6
02/04:30am 13.2 13.0 13.0 99 0.1 NNW 6 11 3 6 1023.4 1023.6 0.8
02/04:00am 13.6 13.5 13.4 99 0.1 N 6 11 3 6 1022.9 1023.1 0.4
02/03:30am 13.2 13.1 13.2 100 0.0 N 6 11 3 6 1022.6 1022.8 0.4
02/03:00am 12.6 13.4 12.6 100 0.0 CALM 0 0 0 0 1022.6 1022.8 0.4
02/02:30am 12.7 13.5 12.7 100 0.0 CALM 0 0 0 0 1023.0 1023.2 0.2
02/02:00am 12.6 13.4 12.6 100 0.0 CALM 0 0 0 0 1023.2 1023.4 0.2
02/01:30am 12.7 13.5 12.7 100 0.0 CALM 0 0 0 0 1023.4 1023.6 0.2
02/01:00am 12.7 13.5 12.7 100 0.0 CALM 0 0 0 0 1023.7 1023.9 0.2
02/12:30am 12.6 13.4 12.6 100 0.0 CALM 0 0 0 0 1023.7 1023.9 0.2
02/12:00am 12.5 13.3 12.5 100 0.0 CALM 0 0 0 0 1023.6 1023.8 0.2
 
Date/Time
WST
Temp
°C
App
Temp
°C
Dew
Point
Rel
Hum
%
Delta-T
°C
Wind Press
QNH
hPa
Press
MSL
hPa
Rain
since 9 am
mm
Dir
 
Spd
km/h
Gust
km/h
Spd
kts
Gust
kts
01/11:30pm 13.1 14.1 13.1 100 0.0 CALM 0 0 0 0 1023.8 1024.0 0.2
01/11:00pm 13.4 14.5 13.4 100 0.0 CALM 0 0 0 0 1024.3 1024.5 0.2
01/10:30pm 12.9 13.4 12.9 100 0.0 NNW 2 4 1 2 1024.6 1024.8 0.0
01/10:00pm 12.9 13.8 12.9 100 0.0 CALM 0 6 0 3 1024.3 1024.5 0.0
01/09:30pm 12.9 13.8 12.9 100 0.0 CALM 0 0 0 0 1024.2 1024.4 0.0
01/09:00pm 12.9 13.8 12.9 100 0.0 CALM 0 0 0 0 1024.1 1024.3 0.0
01/08:30pm 12.9 13.7 12.7 99 0.1 CALM 0 0 0 0 1024.2 1024.4 0.0
01/08:00pm 13.5 14.5 13.3 99 0.1 CALM 0 0 0 0 1024.1 1024.3 0.0
01/07:30pm 14.0 15.2 13.8 99 0.1 CALM 0 0 0 0 1024.1 1024.3 0.0
01/07:00pm 14.2 15.5 14.0 99 0.1 CALM 0 0 0 0 1024.1 1024.3 0.0
01/06:30pm 14.8 16.2 14.5 98 0.2 CALM 0 0 0 0 1023.9 1024.1 0.0
01/06:00pm 15.2 16.8 14.9 98 0.2 CALM 0 0 0 0 1023.7 1023.9 0.0
01/05:30pm 15.7 17.5 15.4 98 0.2 CALM 0 0 0 0 1023.5 1023.7 0.0
01/05:00pm 16.2 17.9 15.2 94 0.6 CALM 0 0 0 0 1023.2 1023.4 0.0
01/04:30pm 17.2 18.3 14.5 84 1.6 N 2 4 1 2 1023.1 1023.3 0.0
01/04:00pm 18.0 18.2 14.1 78 2.2 N 6 7 3 4 1023.4 1023.6 0.0
01/03:30pm 18.7 18.6 13.3 71 3.1 N 6 7 3 4 1023.1 1023.3 0.0
01/03:00pm 18.8 18.5 12.8 68 3.4 N 6 7 3 4 1022.9 1023.1 0.0
01/02:30pm 18.8 19.3 12.8 68 3.4 NNW 2 4 1 2 1022.9 1023.1 0.0
01/02:00pm 19.1 19.3 14.1 73 2.9 NNW 6 7 3 4 1023.0 1023.2 0.0
01/01:30pm 18.6 19.4 14.7 78 2.3 NNW 4 7 2 4 1023.4 1023.6 0.0
01/01:00pm 18.7 18.5 13.6 72 2.9 NNW 7 11 4 6 1023.6 1023.8 0.0
01/12:30pm 18.3 18.6 14.6 79 2.2 NNW 6 9 3 5 1023.8 1024.0 0.0
01/12:00pm 18.4 18.7 14.9 80 2.0 NNW 7 13 4 7 1024.2 1024.4 0.0
01/11:30am 18.0 18.5 15.6 86 1.4 N 7 13 4 7 1024.4 1024.6 0.0
01/11:00am 17.8 19.5 16.3 91 0.9 E 2 6 1 3 1024.5 1024.7 0.0
01/10:30am 15.5 16.8 14.0 91 0.9 CALM 0 2 0 1 1024.7 1024.9 0.0
01/10:00am 13.7 14.8 13.4 98 0.2 CALM 0 0 0 0 1024.6 1024.8 0.0
01/09:30am 12.7 13.5 12.5 99 0.1 CALM 0 0 0 0 1024.5 1024.7 0.0
01/09:00am 11.8 12.4 11.8 100 0.0 CALM 0 0 0 0 1024.5 1024.7 0.4
01/08:30am 9.3 9.2 9.3 100 0.0 CALM 0 0 0 0 1024.3 1024.5 0.4
01/08:00am 9.2 9.0 9.2 100 0.0 CALM 0 0 0 0 1024.1 1024.3 0.4
01/07:30am 8.4 8.0 8.4 100 0.0 CALM 0 0 0 0 1024.2 1024.4 0.4
01/07:00am 8.8 8.5 8.8 100 0.0 CALM 0 0 0 0 1023.8 1024.0 0.4
01/06:30am 8.7 8.4 8.7 100 0.0 CALM 0 0 0 0 1023.6 1023.8 0.4
01/06:00am 8.8 8.5 8.8 100 0.0 CALM 0 0 0 0 1023.5 1023.6 0.4
01/05:30am 8.9 8.7 8.9 100 0.0 CALM 0 2 0 1 1023.6 1023.8 0.4
01/05:00am 8.3 7.5 8.3 100 0.0 NE 2 4 1 2 1023.5 1023.6 0.4
01/04:30am 7.9 7.4 7.9 100 0.0 CALM 0 0 0 0 1023.6 1023.8 0.0
01/04:00am 7.5 6.9 7.5 100 0.0 CALM 0 0 0 0 1023.5 1023.6 0.0
01/03:30am 7.4 6.8 7.4 100 0.0 CALM 0 0 0 0 1023.4 1023.5 0.0
01/03:00am 7.3 6.7 7.3 100 0.0 CALM 0 0 0 0 1023.5 1023.6 0.0
01/02:30am 7.4 6.8 7.4 100 0.0 CALM 0 0 0 0 1023.5 1023.6 0.0
01/02:00am 7.8 7.3 7.8 100 0.0 CALM 0 0 0 0 1023.4 1023.5 0.0
01/01:30am 8.5 8.2 8.5 100 0.0 CALM 0 0 0 0 1023.4 1023.5 0.0
01/01:00am 8.6 8.3 8.6 100 0.0 CALM 0 0 0 0 1023.5 1023.6 0.0
01/12:30am 8.9 8.7 8.9 100 0.0 CALM 0 0 0 0 1023.3 1023.4 0.0
01/12:00am 9.2 9.0 9.2 100 0.0 CALM 0 0 0 0 1023.4 1023.5 0.0
 
Date/Time
WST
Temp
°C
App
Temp
°C
Dew
Point
Rel
Hum
%
Delta-T
°C
Wind Press
QNH
hPa
Press
MSL
hPa
Rain
since 9 am
mm
Dir
 
Spd
km/h
Gust
km/h
Spd
kts
Gust
kts
30/11:30pm 9.4 9.3 9.4 100 0.0 CALM 0 0 0 0 1023.7 1023.9 0.0
30/11:00pm 9.4 9.3 9.4 100 0.0 CALM 0 0 0 0 1023.6 1023.8 0.0
30/10:30pm 9.5 9.4 9.5 100 0.0 CALM 0 0 0 0 1023.3 1023.4 0.0
30/10:00pm 10.1 10.2 10.1 100 0.0 CALM 0 0 0 0 1023.2 1023.3 0.0
30/09:30pm 9.8 9.8 9.8 100 0.0 CALM 0 0 0 0 1023.3 1023.4 0.0
30/09:00pm 10.4 10.6 10.4 100 0.0 CALM 0 0 0 0 1023.1 1023.2 0.0
30/08:30pm 10.5 10.7 10.5 100 0.0 CALM 0 0 0 0 1023.5 1023.6 0.0
30/08:00pm 10.8 11.1 10.8 100 0.0 CALM 0 0 0 0 1023.2 1023.3 0.0
30/07:30pm 11.0 11.3 11.0 100 0.0 CALM 0 0 0 0 1023.3 1023.4 0.0
30/07:00pm 11.5 11.6 11.5 100 0.0 SW 2 6 1 3 1022.9 1023.0 0.0
30/06:30pm 12.3 13.0 12.3 100 0.0 CALM 0 0 0 0 1022.8 1022.9 0.0
30/06:00pm 12.8 13.7 12.8 100 0.0 CALM 0 0 0 0 1022.2 1022.3 0.0
30/05:30pm 13.6 14.7 13.4 99 0.1 CALM 0 0 0 0 1021.9 1022.0 0.0
30/05:00pm 14.5 15.8 14.2 98 0.2 CALM 0 0 0 0 1022.3 1022.4 0.0
30/04:30pm 15.5 16.9 14.4 93 0.6 CALM 0 0 0 0 1021.9 1022.0 0.0
30/04:00pm 17.5 18.4 13.0 75 2.5 CALM 0 0 0 0 1022.1 1022.2 0.0
30/03:30pm 17.7 18.1 12.4 71 3.0 NW 2 4 1 2 1021.9 1022.0 0.0
30/03:00pm 17.9 18.0 11.5 66 3.5 NW 2 7 1 4 1021.9 1022.0 0.0
30/02:30pm 18.4 17.3 10.0 58 4.5 NNW 6 11 3 6 1021.5 1021.6 0.0
30/02:00pm 17.7 17.7 9.8 60 4.2 CALM 0 0 0 0 1021.4 1021.5 0.0
30/01:30pm 16.1 16.5 11.3 73 2.6 CALM 0 0 0 0 1021.2 1021.3 0.0
30/01:00pm 15.3 15.4 10.3 72 2.6 CALM 0 0 0 0 1021.7 1021.8 0.0
30/12:30pm 14.6 14.8 10.4 76 2.2 CALM 0 2 0 1 1022.2 1022.3 0.0
30/12:00pm 13.3 13.4 10.1 81 1.7 CALM 0 0 0 0 1022.8 1022.9 0.0
30/11:30am 11.6 11.2 9.7 88 1.0 SSE 2 4 1 2 1023.2 1023.3 0.0
30/11:00am 9.7 9.2 9.4 98 0.1 SSE 2 4 1 2 1023.7 1023.9 0.0
30/10:30am 7.8 7.3 7.8 100 0.0 CALM 0 0 0 0 1024.0 1024.2 0.0
30/10:00am 6.5 5.7 6.5 100 0.0 CALM 0 0 0 0 1024.4 1024.6 0.0
30/09:30am 5.3 4.2 5.3 100 0.0 CALM 0 0 0 0 1024.3 1024.5 0.0
30/09:00am 4.2 2.9 4.2 100 0.0 CALM 0 0 0 0 1023.7 1023.9 0.2
30/08:30am 3.1 1.6 3.1 100 0.0 CALM 0 0 0 0 1023.6 1023.8 0.2
30/08:00am 2.0 0.3 2.0 100 0.0 CALM 0 0 0 0 1023.8 1024.0 0.2
30/07:30am 1.6 -0.1 1.6 100 0.0 CALM 0 0 0 0 1023.6 1023.8 0.2
30/07:00am 1.3 -0.5 1.3 100 0.0 CALM 0 0 0 0 1023.6 1023.8 0.2
30/06:30am 0.8 -1.1 0.8 100 0.0 CALM 0 0 0 0 1023.7 1023.9 0.2
30/06:00am 1.0 -0.8 1.0 100 0.0 CALM 0 4 0 2 1023.5 1023.6 0.2
30/05:30am 1.1 -0.7 1.1 100 0.0 CALM 0 0 0 0 1023.6 1023.8 0.2
30/05:00am 1.2 -0.6 1.2 100 0.0 CALM 0 0 0 0 1023.2 1023.3 0.2
30/04:30am 1.3 -0.5 1.3 100 0.0 CALM 0 0 0 0 1023.0 1023.1 0.2
30/04:00am 1.4 -0.4 1.4 100 0.0 CALM 0 0 0 0 1023.4 1023.5 0.2
30/03:30am 1.6 -0.1 1.6 100 0.0 CALM 0 0 0 0 1023.4 1023.5 0.2
30/03:00am 1.9 0.2 1.9 100 0.0 CALM 0 0 0 0 1023.4 1023.5 0.2
30/02:30am 1.6 -0.1 1.6 100 0.0 CALM 0 0 0 0 1023.5 1023.6 0.2
30/02:00am 1.8 0.1 1.8 100 0.0 CALM 0 0 0 0 1023.7 1023.9 0.0
30/01:30am 1.8 0.1 1.8 100 0.0 CALM 0 0 0 0 1023.9 1024.1 0.0
30/01:00am 2.3 0.7 2.3 100 0.0 CALM 0 0 0 0 1023.9 1024.1 0.0
30/12:30am 2.1 0.4 2.1 100 0.0 CALM 0 0 0 0 1023.9 1024.1 0.0
30/12:00am 2.5 0.9 2.5 100 0.0 CALM 0 0 0 0 1023.9 1024.1 0.0
 
Date/Time
WST
Temp
°C
App
Temp
°C
Dew
Point
Rel
Hum
%
Delta-T
°C
Wind Press
QNH
hPa
Press
MSL
hPa
Rain
since 9 am
mm
Dir
 
Spd
km/h
Gust
km/h
Spd
kts
Gust
kts
29/11:30pm 2.5 0.9 2.5 100 0.0 CALM 0 0 0 0 1024.1 1024.3 0.0
29/11:00pm 2.9 1.4 2.9 100 0.0 CALM 0 0 0 0 1024.1 1024.3 0.0
29/10:30pm 3.1 1.6 3.1 100 0.0 CALM 0 0 0 0 1024.1 1024.3 0.0
29/10:00pm 3.9 2.6 3.9 100 0.0 CALM 0 0 0 0 1024.3 1024.5 0.0
29/09:30pm 4.0 2.7 4.0 100 0.0 CALM 0 0 0 0 1024.5 1024.7 0.0
29/09:00pm 4.3 3.0 4.3 100 0.0 CALM 0 0 0 0 1024.6 1024.8 0.0

Other Formats:

Comma delimited format used in spreadsheet applications
http://www.bom.gov.au/fwo/IDW60801/IDW60801.95632.axf

JavaScript Object Notation format (JSON) in row-major order
http://www.bom.gov.au/fwo/IDW60801/IDW60801.95632.json